createdAt,value
2023-04-16T00:01:36.794Z,100757.25
2023-04-16T00:04:03.798Z,100725.69
2023-04-16T00:06:31.029Z,100765.88
2023-04-16T00:08:58.420Z,100755.59
2023-04-16T00:11:25.378Z,100750.22
2023-04-16T00:13:52.212Z,100761.72
2023-04-16T00:16:19.277Z,100750.59
2023-04-16T00:18:46.258Z,100725.56
2023-04-16T00:21:13.185Z,100734.13
2023-04-16T00:23:40.028Z,100750.84
2023-04-16T00:26:07.082Z,100775.09
2023-04-16T00:28:33.899Z,100770.31
2023-04-16T00:31:01.840Z,100763.84
2023-04-16T00:33:29.477Z,100748.78
2023-04-16T00:35:56.528Z,100763.94
2023-04-16T00:38:23.438Z,100756.59
2023-04-16T00:40:50.494Z,100778.84
2023-04-16T00:43:27.094Z,100772.00
2023-04-16T00:45:56.983Z,100783.13
2023-04-16T00:48:24.262Z,100789.81
2023-04-16T00:50:51.196Z,100784.75
2023-04-16T00:53:18.064Z,100768.84
2023-04-16T00:55:45.634Z,100785.50
2023-04-16T00:58:13.034Z,100778.16
2023-04-16T01:00:41.023Z,100778.72
2023-04-16T01:03:08.134Z,100784.84
2023-04-16T01:05:36.809Z,100765.09
2023-04-16T01:08:03.803Z,100776.53
2023-04-16T01:10:31.467Z,100766.91
2023-04-16T01:12:58.309Z,100754.31
2023-04-16T01:15:25.188Z,100789.59
2023-04-16T01:17:52.152Z,100773.91
2023-04-16T01:20:19.234Z,100789.72
2023-04-16T01:22:46.101Z,100772.75
2023-04-16T01:25:16.037Z,100775.09
2023-04-16T01:27:42.991Z,100775.72
2023-04-16T01:30:10.166Z,100751.75
2023-04-16T01:32:50.322Z,100793.81
2023-04-16T01:35:17.608Z,100796.13
2023-04-16T01:37:44.945Z,100794.81
2023-04-16T01:40:11.940Z,100771.50
2023-04-16T01:42:38.809Z,100787.13
2023-04-16T01:45:06.503Z,100770.09
2023-04-16T01:47:33.447Z,100784.69
2023-04-16T01:50:01.391Z,100769.56
2023-04-16T01:52:29.660Z,100767.19
2023-04-16T01:54:57.602Z,100796.97
2023-04-16T01:57:24.495Z,100798.09
2023-04-16T01:59:53.068Z,100807.72
2023-04-16T02:02:20.312Z,100778.63
2023-04-16T02:04:47.474Z,100794.34
2023-04-16T02:07:14.581Z,100814.22
2023-04-16T02:09:41.604Z,100801.94
2023-04-16T02:12:08.879Z,100781.94
2023-04-16T02:14:35.830Z,100788.44
2023-04-16T02:17:03.385Z,100782.06
2023-04-16T02:19:37.933Z,100794.28
2023-04-16T02:22:05.422Z,100801.84
2023-04-16T02:24:32.300Z,100780.50
2023-04-16T02:27:02.348Z,100780.06
2023-04-16T02:29:29.270Z,100796.06
2023-04-16T02:32:03.560Z,100792.69
2023-04-16T02:34:32.723Z,100782.53
2023-04-16T02:36:59.611Z,100782.00
2023-04-16T02:39:26.642Z,100783.03
2023-04-16T02:41:53.668Z,100795.94
2023-04-16T02:44:21.317Z,100822.78
2023-04-16T02:46:48.162Z,100807.69
2023-04-16T02:49:15.081Z,100764.81
2023-04-16T02:51:41.898Z,100812.44
2023-04-16T02:54:08.827Z,100803.22
2023-04-16T02:56:35.718Z,100796.50
2023-04-16T02:59:02.604Z,100792.75
2023-04-16T03:01:29.957Z,100799.66
2023-04-16T03:03:57.090Z,100815.47
2023-04-16T03:06:24.200Z,100811.75
2023-04-16T03:08:51.085Z,100812.13
2023-04-16T03:11:17.966Z,100812.41
2023-04-16T03:13:45.006Z,100801.78
2023-04-16T03:16:11.892Z,100813.97
2023-04-16T03:18:38.967Z,100824.25
2023-04-16T03:21:05.849Z,100794.47
2023-04-16T03:23:32.790Z,100824.56
2023-04-16T03:25:59.780Z,100819.03
2023-04-16T03:28:27.046Z,100824.09
2023-04-16T03:30:54.071Z,100828.13
2023-04-16T03:33:21.420Z,100830.06
2023-04-16T03:35:55.501Z,100796.78
2023-04-16T03:38:24.307Z,100794.44
2023-04-16T03:40:51.370Z,100805.75
2023-04-16T03:43:18.557Z,100815.19
2023-04-16T03:45:46.107Z,100834.66
2023-04-16T03:48:13.843Z,100820.19
2023-04-16T03:50:40.723Z,100818.75
2023-04-16T03:53:09.495Z,100825.72
2023-04-16T03:55:36.677Z,100834.97
2023-04-16T03:58:03.689Z,100843.22
2023-04-16T04:00:32.321Z,100801.44
2023-04-16T04:03:10.587Z,100822.03
2023-04-16T04:05:40.662Z,100826.72
2023-04-16T04:08:09.704Z,100824.78
2023-04-16T04:10:37.651Z,100837.25
2023-04-16T04:13:07.250Z,100840.97
2023-04-16T04:15:36.259Z,100813.59
2023-04-16T04:18:03.171Z,100841.25
2023-04-16T04:20:30.330Z,100820.38
2023-04-16T04:22:57.918Z,100829.47
2023-04-16T04:25:26.162Z,100823.06
2023-04-16T04:27:53.208Z,100826.81
2023-04-16T04:30:20.277Z,100835.00
2023-04-16T04:32:47.171Z,100796.34
2023-04-16T04:35:16.044Z,100814.97
2023-04-16T04:37:42.892Z,100809.63
2023-04-16T04:40:16.920Z,100844.78
2023-04-16T04:42:44.856Z,100828.47
2023-04-16T04:45:12.190Z,100826.59
2023-04-16T04:47:40.871Z,100836.84
2023-04-16T04:50:08.407Z,100819.31
2023-04-16T04:52:35.544Z,100845.47
2023-04-16T04:55:03.071Z,100829.91
2023-04-16T04:57:30.591Z,100853.44
2023-04-16T04:59:57.532Z,100829.91
2023-04-16T05:02:24.757Z,100818.16
2023-04-16T05:04:51.706Z,100844.38
2023-04-16T05:07:18.663Z,100843.91
2023-04-16T05:09:45.555Z,100837.88
2023-04-16T05:12:12.517Z,100839.34
2023-04-16T05:14:39.462Z,100829.81
2023-04-16T05:17:06.461Z,100839.38
2023-04-16T05:19:33.468Z,100839.78
2023-04-16T05:22:00.421Z,100820.47
2023-04-16T05:24:27.321Z,100837.97
2023-04-16T05:26:54.296Z,100835.06
2023-04-16T05:29:21.119Z,100853.56
2023-04-16T05:31:48.074Z,100858.13
2023-04-16T05:34:14.967Z,100863.72
2023-04-16T05:36:41.856Z,100842.91
2023-04-16T05:39:09.103Z,100848.97
2023-04-16T05:41:36.305Z,100839.88
2023-04-16T05:44:03.124Z,100826.91
2023-04-16T05:46:32.362Z,100830.69
2023-04-16T05:48:59.405Z,100845.03
2023-04-16T05:51:26.435Z,100852.19
2023-04-16T05:54:00.119Z,100845.50
2023-04-16T05:56:27.081Z,100841.75
2023-04-16T05:58:53.926Z,100833.47
2023-04-16T06:01:25.615Z,100842.59
2023-04-16T06:03:56.533Z,100846.78
2023-04-16T06:06:26.386Z,100815.75
2023-04-16T06:08:53.385Z,100831.28
2023-04-16T06:11:20.195Z,100841.13
2023-04-16T06:13:47.047Z,100839.25
2023-04-16T06:16:13.946Z,100838.84
2023-04-16T06:18:42.910Z,100827.41
2023-04-16T06:21:09.874Z,100850.50
2023-04-16T06:23:36.714Z,100826.97
2023-04-16T06:26:03.640Z,100857.25
2023-04-16T06:28:30.653Z,100835.31
2023-04-16T06:30:57.614Z,100826.22
2023-04-16T06:33:24.440Z,100819.41
2023-04-16T06:35:51.371Z,100856.59
2023-04-16T06:38:18.656Z,100832.66
2023-04-16T06:40:45.549Z,100846.72
2023-04-16T06:43:14.705Z,100826.53
2023-04-16T06:45:42.258Z,100817.47
2023-04-16T06:48:09.378Z,100827.28
2023-04-16T06:50:36.340Z,100841.28
2023-04-16T06:53:03.414Z,100826.53
2023-04-16T06:55:30.296Z,100826.53
2023-04-16T06:57:59.691Z,100843.28
2023-04-16T07:00:26.618Z,100817.00
2023-04-16T07:02:54.671Z,100817.69
2023-04-16T07:05:23.424Z,100802.66
2023-04-16T07:07:53.510Z,100815.16
2023-04-16T07:10:20.360Z,100812.41
2023-04-16T07:12:47.341Z,100828.38
2023-04-16T07:15:14.181Z,100803.38
2023-04-16T07:17:41.133Z,100822.28
2023-04-16T07:20:08.768Z,100820.13
2023-04-16T07:22:35.791Z,100829.88
2023-04-16T07:25:02.732Z,100818.66
2023-04-16T07:27:29.596Z,100778.81
2023-04-16T07:29:56.404Z,100786.09
2023-04-16T07:32:23.481Z,100810.16
2023-04-16T07:34:50.464Z,100795.19
2023-04-16T07:37:17.290Z,100796.66
2023-04-16T07:39:44.128Z,100793.22
2023-04-16T07:42:11.118Z,100824.88
2023-04-16T07:44:38.027Z,100794.34
2023-04-16T07:47:05.803Z,100794.63
2023-04-16T07:49:32.925Z,100773.81
2023-04-16T07:51:59.779Z,100770.22
2023-04-16T07:54:28.495Z,100801.09
2023-04-16T07:56:56.138Z,100786.88
2023-04-16T07:59:24.408Z,100785.28
2023-04-16T08:01:53.501Z,100757.97
2023-04-16T08:04:20.679Z,100782.00
2023-04-16T08:06:47.581Z,100786.06
2023-04-16T08:09:14.456Z,100790.47
2023-04-16T08:11:41.343Z,100774.19
2023-04-16T08:14:08.577Z,100795.06
2023-04-16T08:16:35.400Z,100784.59
2023-04-16T08:19:02.290Z,100773.63
2023-04-16T08:21:29.184Z,100783.69
2023-04-16T08:23:56.093Z,100781.84
2023-04-16T08:26:23.178Z,100759.44
2023-04-16T08:28:50.042Z,100760.59
2023-04-16T08:31:17.178Z,100766.59
2023-04-16T08:33:44.094Z,100785.25
2023-04-16T08:36:11.059Z,100758.38
2023-04-16T08:38:37.902Z,100774.59
2023-04-16T08:41:07.489Z,100751.69
2023-04-16T08:43:38.187Z,100755.53
2023-04-16T08:46:08.976Z,100762.56
2023-04-16T08:48:37.877Z,100763.25
2023-04-16T08:51:10.502Z,100744.72
2023-04-16T08:53:49.534Z,100766.84
2023-04-16T08:56:20.302Z,100760.38
2023-04-16T08:58:50.104Z,100741.03
2023-04-16T09:01:19.210Z,100759.22
2023-04-16T09:03:48.468Z,100749.44
2023-04-16T09:06:16.571Z,100756.22
2023-04-16T09:08:48.191Z,100752.72
2023-04-16T09:11:18.144Z,100743.31
2023-04-16T09:13:46.668Z,100726.19
2023-04-16T09:16:14.387Z,100687.34
2023-04-16T09:18:41.635Z,100722.59
2023-04-16T09:21:10.482Z,100727.22
2023-04-16T09:23:37.967Z,100724.41
2023-04-16T09:26:05.454Z,100716.75
2023-04-16T09:28:49.235Z,100715.78
2023-04-16T09:31:18.238Z,100721.81
2023-04-16T09:34:07.718Z,100701.63
2023-04-16T09:36:36.074Z,100723.22
2023-04-16T09:39:04.388Z,100712.97
2023-04-16T09:41:33.502Z,100705.44
2023-04-16T09:44:02.447Z,100712.47
2023-04-16T09:46:36.431Z,100705.78
2023-04-16T09:49:13.484Z,100710.66
2023-04-16T09:51:45.066Z,100704.47
2023-04-16T09:54:12.150Z,100710.66
2023-04-16T09:56:43.736Z,100692.81
2023-04-16T09:59:18.127Z,100717.84
2023-04-16T10:01:45.407Z,100701.47
2023-04-16T10:04:12.725Z,100707.47
2023-04-16T10:06:39.820Z,100707.97
2023-04-16T10:09:10.030Z,100695.91
2023-04-16T10:11:37.936Z,100693.09
2023-04-16T10:14:05.025Z,100704.09
2023-04-16T10:16:33.116Z,100666.22
2023-04-16T10:19:00.145Z,100706.03
2023-04-16T10:21:27.762Z,100706.25
2023-04-16T10:23:54.698Z,100698.72
2023-04-16T10:26:21.734Z,100676.94
2023-04-16T10:28:48.902Z,100673.88
2023-04-16T10:31:16.438Z,100640.34
2023-04-16T10:33:44.823Z,100679.13
2023-04-16T10:36:23.687Z,100703.47
2023-04-16T10:38:51.737Z,100687.75
2023-04-16T10:41:20.773Z,100680.78
2023-04-16T10:43:49.529Z,100683.16
2023-04-16T10:46:37.878Z,100674.22
2023-04-16T10:49:24.643Z,100671.66
2023-04-16T10:52:01.079Z,100665.28
2023-04-16T10:54:30.424Z,100668.78
2023-04-16T10:57:01.222Z,100668.56
2023-04-16T10:59:34.383Z,100676.59
2023-04-16T11:02:08.261Z,100676.34
2023-04-16T11:04:36.903Z,100640.19
2023-04-16T11:07:12.962Z,100662.50
2023-04-16T11:09:44.036Z,100667.06
2023-04-16T11:12:13.631Z,100647.69
2023-04-16T11:14:47.052Z,100634.63
2023-04-16T11:17:14.062Z,100647.75
2023-04-16T11:19:43.094Z,100661.25
2023-04-16T11:22:13.333Z,100621.06
2023-04-16T11:24:40.225Z,100637.59
2023-04-16T11:27:09.940Z,100634.53
2023-04-16T11:29:36.936Z,100634.69
2023-04-16T11:32:03.905Z,100627.06
2023-04-16T11:34:30.978Z,100593.41
2023-04-16T11:36:57.911Z,100619.44
2023-04-16T11:39:25.084Z,100621.88
2023-04-16T11:41:53.469Z,100624.97
2023-04-16T11:44:21.867Z,100623.22
2023-04-16T11:46:49.980Z,100609.88
2023-04-16T11:49:17.278Z,100634.97
2023-04-16T11:51:46.590Z,100595.31
2023-04-16T11:54:24.558Z,100618.41
2023-04-16T11:56:53.290Z,100609.78
2023-04-16T11:59:22.465Z,100593.25
2023-04-16T12:01:54.382Z,100586.34
2023-04-16T12:04:25.138Z,100569.94
2023-04-16T12:07:11.749Z,100592.88
2023-04-16T12:09:41.034Z,100566.50
2023-04-16T12:12:31.928Z,100589.03
2023-04-16T12:15:00.329Z,100591.53
2023-04-16T12:17:27.256Z,100585.00
2023-04-16T12:20:02.347Z,100583.97
2023-04-16T12:22:31.668Z,100551.38
2023-04-16T12:24:59.522Z,100569.88
2023-04-16T12:27:26.550Z,100572.84
2023-04-16T12:30:04.444Z,100563.16
2023-04-16T12:32:31.440Z,100553.59
2023-04-16T12:34:58.392Z,100562.16
2023-04-16T12:37:25.316Z,100573.88
2023-04-16T12:39:52.153Z,100569.84
2023-04-16T12:42:19.099Z,100564.78
2023-04-16T12:44:45.914Z,100539.22
2023-04-16T12:47:13.021Z,100565.31
2023-04-16T12:49:40.090Z,100537.91
2023-04-16T12:52:07.075Z,100539.88
2023-04-16T12:54:34.051Z,100548.41
2023-04-16T12:57:00.993Z,100520.91
2023-04-16T12:59:27.945Z,100540.41
2023-04-16T13:01:55.067Z,100538.81
2023-04-16T13:04:23.521Z,100524.88
2023-04-16T13:06:52.522Z,100532.25
2023-04-16T13:09:19.554Z,100512.81
2023-04-16T13:11:46.524Z,100510.75
2023-04-16T13:14:13.400Z,100489.13
2023-04-16T13:16:40.316Z,100529.75
2023-04-16T13:19:07.160Z,100499.53
2023-04-16T13:21:34.388Z,100492.75
2023-04-16T13:24:01.345Z,100500.81
2023-04-16T13:26:28.273Z,100508.69
2023-04-16T13:28:55.208Z,100512.09
2023-04-16T13:31:22.584Z,100508.13
2023-04-16T13:33:50.516Z,100505.22
2023-04-16T13:36:17.446Z,100482.88
2023-04-16T13:38:44.493Z,100498.34
2023-04-16T13:41:13.753Z,100491.69
2023-04-16T13:43:40.584Z,100470.47
2023-04-16T13:46:08.148Z,100486.94
2023-04-16T13:48:35.068Z,100489.81
2023-04-16T13:51:03.276Z,100485.66
2023-04-16T13:53:30.144Z,100486.03
2023-04-16T13:55:57.117Z,100476.94
2023-04-16T13:58:24.041Z,100467.09
2023-04-16T14:00:51.032Z,100486.50
2023-04-16T14:03:17.950Z,100482.28
2023-04-16T14:05:44.921Z,100471.28
2023-04-16T14:08:11.752Z,100539.75
2023-04-16T14:10:38.733Z,100474.59
2023-04-16T14:13:05.609Z,100459.75
2023-04-16T14:15:32.480Z,100468.53
2023-04-16T14:17:59.306Z,100482.28
2023-04-16T14:20:26.272Z,100469.44
2023-04-16T14:22:53.078Z,100468.81
2023-04-16T14:25:19.988Z,100473.31
2023-04-16T14:27:46.878Z,100453.56
2023-04-16T14:30:13.934Z,100483.13
2023-04-16T14:32:40.845Z,100463.47
2023-04-16T14:35:08.256Z,100460.28
2023-04-16T14:37:36.190Z,100466.66
2023-04-16T14:40:03.618Z,100450.91
2023-04-16T14:42:30.545Z,100467.94
2023-04-16T14:44:57.502Z,100462.66
2023-04-16T14:47:24.404Z,100454.72
2023-04-16T14:49:51.361Z,100453.19
2023-04-16T14:52:18.248Z,100472.06
2023-04-16T14:54:45.185Z,100474.38
2023-04-16T14:57:11.975Z,100436.84
2023-04-16T14:59:38.931Z,100466.03
2023-04-16T15:02:06.427Z,100467.59
2023-04-16T15:04:33.560Z,100459.94
2023-04-16T15:07:00.493Z,100452.88
2023-04-16T15:09:27.410Z,100436.75
2023-04-16T15:11:54.635Z,100456.41
2023-04-16T15:14:21.729Z,100461.75
2023-04-16T15:16:48.613Z,100447.03
2023-04-16T15:19:15.749Z,100463.03
2023-04-16T15:21:42.596Z,100468.06
2023-04-16T15:24:09.749Z,100451.41
2023-04-16T15:26:37.016Z,100457.97
2023-04-16T15:29:04.284Z,100450.56
2023-04-16T15:31:31.236Z,100465.75
2023-04-16T15:33:58.232Z,100475.66
2023-04-16T15:36:25.118Z,100470.06
2023-04-16T15:38:52.117Z,100464.09
2023-04-16T15:41:19.023Z,100491.81
2023-04-16T15:43:45.942Z,100473.28
2023-04-16T15:46:12.941Z,100469.19
2023-04-16T15:48:39.953Z,100471.44
2023-04-16T15:51:06.853Z,100490.09
2023-04-16T15:53:34.436Z,100483.69
2023-04-16T15:56:01.420Z,100470.09
2023-04-16T15:58:28.462Z,100475.75
2023-04-16T16:00:55.368Z,100461.06
2023-04-16T16:03:22.492Z,100512.16
2023-04-16T16:05:49.620Z,100489.81
2023-04-16T16:08:17.039Z,100492.88
2023-04-16T16:10:43.887Z,100466.41
2023-04-16T16:13:10.787Z,100484.91
2023-04-16T16:15:38.345Z,100474.75
2023-04-16T16:18:05.506Z,100474.00
2023-04-16T16:20:32.428Z,100499.00
2023-04-16T16:22:59.333Z,100478.56
2023-04-16T16:25:26.214Z,100509.22
2023-04-16T16:27:53.228Z,100492.19
2023-04-16T16:30:20.218Z,100499.03
2023-04-16T16:32:47.203Z,100534.59
2023-04-16T16:35:14.134Z,100499.81
2023-04-16T16:37:41.036Z,100531.56
2023-04-16T16:40:08.384Z,100509.63
2023-04-16T16:42:35.345Z,100499.00
2023-04-16T16:45:02.289Z,100519.41
2023-04-16T16:47:29.225Z,100486.50
2023-04-16T16:49:56.271Z,100516.75
2023-04-16T16:52:24.227Z,100523.94
2023-04-16T16:54:51.493Z,100568.53
2023-04-16T16:57:19.255Z,100520.50
2023-04-16T16:59:47.045Z,100518.63
2023-04-16T17:02:16.345Z,100536.75
2023-04-16T17:04:44.080Z,100539.38
2023-04-16T17:07:11.178Z,100545.03
2023-04-16T17:09:38.100Z,100532.53
2023-04-16T17:12:05.930Z,100529.16
2023-04-16T17:14:32.946Z,100549.56
2023-04-16T17:16:59.859Z,100529.06
2023-04-16T17:19:26.847Z,100562.25
2023-04-16T17:21:53.830Z,100533.53
2023-04-16T17:24:20.738Z,100532.34
2023-04-16T17:26:47.643Z,100547.06
2023-04-16T17:29:14.524Z,100536.41
2023-04-16T17:31:41.465Z,100538.63
2023-04-16T17:34:08.470Z,100569.13
2023-04-16T17:36:35.410Z,100581.88
2023-04-16T17:39:02.536Z,100554.63
2023-04-16T17:41:29.521Z,100535.38
2023-04-16T17:43:56.380Z,100549.72
2023-04-16T17:46:23.320Z,100556.06
2023-04-16T17:49:08.855Z,100564.75
2023-04-16T17:51:35.767Z,100553.00
2023-04-16T17:54:02.772Z,100561.31
2023-04-16T17:56:29.726Z,100560.13
2023-04-16T17:59:15.204Z,100547.00
2023-04-16T18:01:42.580Z,100542.31
2023-04-16T18:04:10.203Z,100547.25
2023-04-16T18:06:37.574Z,100544.22
2023-04-16T18:09:04.513Z,100558.09
2023-04-16T18:11:31.564Z,100522.91
2023-04-16T18:13:58.564Z,100520.56
2023-04-16T18:16:26.116Z,100548.56
2023-04-16T18:18:56.240Z,100544.00
2023-04-16T18:21:23.181Z,100541.75
2023-04-16T18:24:09.022Z,100540.19
2023-04-16T18:26:36.381Z,100542.44
2023-04-16T18:29:07.195Z,100547.72
2023-04-16T18:31:36.015Z,100551.41
2023-04-16T18:34:23.783Z,100555.16
2023-04-16T18:37:00.803Z,100539.66
2023-04-16T18:39:51.112Z,100543.00
2023-04-16T18:42:20.941Z,100548.66
2023-04-16T18:44:59.500Z,100548.97
2023-04-16T18:47:28.094Z,100517.88
2023-04-16T18:49:57.653Z,100528.47
2023-04-16T18:52:30.923Z,100557.06
2023-04-16T18:54:58.219Z,100531.78
2023-04-16T18:57:26.043Z,100542.75
2023-04-16T18:59:54.002Z,100538.94
2023-04-16T19:02:25.824Z,100532.84
2023-04-16T19:04:53.035Z,100541.81
2023-04-16T19:07:22.558Z,100546.31
2023-04-16T19:10:13.560Z,100533.38
2023-04-16T19:12:41.250Z,100524.97
2023-04-16T19:15:08.391Z,100524.16
2023-04-16T19:17:42.682Z,100520.78
2023-04-16T19:20:10.104Z,100527.97
2023-04-16T19:22:55.991Z,100519.16
2023-04-16T19:25:22.980Z,100533.81
2023-04-16T19:27:54.792Z,100531.53
2023-04-16T19:30:40.210Z,100507.47
2023-04-16T19:33:14.311Z,100505.56
2023-04-16T19:35:46.297Z,100537.66
2023-04-16T19:38:15.717Z,100539.53
2023-04-16T19:40:50.143Z,100530.72
2023-04-16T19:43:20.361Z,100524.94
2023-04-16T19:48:50.064Z,100555.41
2023-04-16T19:51:17.170Z,100537.28
2023-04-16T19:53:47.434Z,100529.59
2023-04-16T19:56:14.437Z,100548.44
2023-04-16T19:58:42.283Z,100539.59
2023-04-16T20:01:10.899Z,100544.28
2023-04-16T20:03:38.600Z,100550.91
2023-04-16T20:06:05.858Z,100530.28
2023-04-16T20:08:37.842Z,100559.84
2023-04-16T20:11:05.982Z,100542.47
2023-04-16T20:13:35.837Z,100543.13
2023-04-16T20:16:12.064Z,100554.66
2023-04-16T20:18:39.682Z,100547.34
2023-04-16T20:21:12.205Z,100550.72
2023-04-16T20:23:39.692Z,100534.78
2023-04-16T20:26:06.646Z,100555.16
2023-04-16T20:28:33.828Z,100533.75
2023-04-16T20:31:01.452Z,100545.78
2023-04-16T20:33:32.655Z,100548.72
2023-04-16T20:36:02.763Z,100532.91
2023-04-16T20:38:33.691Z,100536.56
2023-04-16T20:41:01.106Z,100542.75
2023-04-16T20:43:28.011Z,100564.28
2023-04-16T20:45:59.306Z,100552.16
2023-04-16T20:48:27.241Z,100551.06
2023-04-16T20:51:06.541Z,100540.94
2023-04-16T20:53:37.575Z,100546.69
2023-04-16T20:56:10.248Z,100572.47
2023-04-16T20:58:46.159Z,100522.91
2023-04-16T21:01:13.599Z,100529.00
2023-04-16T21:03:40.808Z,100523.34
2023-04-16T21:06:07.963Z,100524.41
2023-04-16T21:08:35.148Z,100538.31
2023-04-16T21:11:01.998Z,100543.97
2023-04-16T21:13:28.845Z,100538.59
2023-04-16T21:15:55.895Z,100540.06
2023-04-16T21:18:22.814Z,100523.91
2023-04-16T21:20:49.705Z,100536.13
2023-04-16T21:23:16.564Z,100519.41
2023-04-16T21:25:43.729Z,100507.38
2023-04-16T21:28:10.685Z,100551.59
2023-04-16T21:30:37.522Z,100535.47
2023-04-16T21:33:04.478Z,100540.38
2023-04-16T21:35:32.625Z,100549.31
2023-04-16T21:37:59.547Z,100557.75
2023-04-16T21:40:26.616Z,100562.09
2023-04-16T21:42:53.469Z,100544.44
2023-04-16T21:45:20.414Z,100547.88
2023-04-16T21:47:47.296Z,100551.09
2023-04-16T21:50:14.205Z,100554.44
2023-04-16T21:52:41.080Z,100558.50
2023-04-16T21:55:08.901Z,100548.69
2023-04-16T21:57:35.814Z,100558.38
2023-04-16T22:00:02.866Z,100567.59
2023-04-16T22:02:31.363Z,100558.88
2023-04-16T22:04:58.314Z,100538.66
2023-04-16T22:07:25.294Z,100527.06
2023-04-16T22:09:52.149Z,100565.22
2023-04-16T22:12:19.174Z,100562.38
2023-04-16T22:14:59.282Z,100545.72
2023-04-16T22:17:29.161Z,100552.34
2023-04-16T22:19:56.135Z,100581.50
2023-04-16T22:22:23.440Z,100543.91
2023-04-16T22:24:50.284Z,100556.38
2023-04-16T22:27:17.573Z,100548.81
2023-04-16T22:29:44.465Z,100565.66
2023-04-16T22:32:11.530Z,100541.16
2023-04-16T22:34:38.416Z,100595.00
2023-04-16T22:37:05.383Z,100555.50
2023-04-16T22:39:32.272Z,100599.75
2023-04-16T22:41:59.256Z,100566.47
2023-04-16T22:44:26.234Z,100554.38
2023-04-16T22:46:53.136Z,100574.19
2023-04-16T22:49:20.436Z,100579.44
2023-04-16T22:51:47.545Z,100559.16
2023-04-16T22:54:14.443Z,100558.03
2023-04-16T22:56:41.416Z,100582.38
2023-04-16T22:59:08.357Z,100589.16
2023-04-16T23:01:35.481Z,100567.34
2023-04-16T23:04:02.475Z,100564.72
2023-04-16T23:06:29.442Z,100594.88
2023-04-16T23:08:56.248Z,100570.09
2023-04-16T23:11:23.473Z,100563.66
2023-04-16T23:13:50.387Z,100568.22
2023-04-16T23:16:17.413Z,100589.97
2023-04-16T23:18:44.286Z,100555.00
2023-04-16T23:21:11.182Z,100573.56
2023-04-16T23:23:38.024Z,100569.69
2023-04-16T23:26:05.157Z,100588.09
2023-04-16T23:28:31.963Z,100554.00
2023-04-16T23:30:58.965Z,100564.59
2023-04-16T23:33:26.052Z,100560.22
2023-04-16T23:35:52.983Z,100572.03
2023-04-16T23:38:19.805Z,100562.09
2023-04-16T23:40:46.707Z,100589.84
2023-04-16T23:43:13.546Z,100568.59
2023-04-16T23:45:40.500Z,100584.81
2023-04-16T23:48:07.354Z,100601.22
2023-04-16T23:50:34.282Z,100581.59
2023-04-16T23:53:01.117Z,100562.38
2023-04-16T23:55:28.051Z,100575.25
2023-04-16T23:57:54.909Z,100587.44
